Shafter, Nevada
Current Conditions -  °F | °C
As of 6:15 PM on Sunday 21 Dec 2014 (Local Time) from KENV Reporting Station
Clear Clear  
Wind Chill: 54°   Ceiling: Unl
Heat Index: 54°   Visibility: 10mi
Dew Point: 39°   Wind: 28mph
Humidity: 58%   Direction: 280°W
Pressure: 29.97"   Gusts: 32mph
Location:  41.0114°N, 114.57°W
Report Text: KENV 220215Z AUTO 28024G28KT 10SM CLR 12/04 A2997 RMK AO1
Loading
Personal Weather Stations






























Interactive Weather Map New forecast layout! Learn more

10-Day Weather Forecast

Advertisements
Track Severe Weather on mobile